There are multiple Weather-warnings   Click here for more information


Meteo18 Weather Cam more information Meteo18 Weather Cam


warning for Thunderstorms more information blitzortung!


Rain radar more information rain snow radar


Visit our other weather sites:

Template documentation
and downloads

And another site



Weather Underground History page Text

Daily Summary for June 22, 2017 Units:  Both    English   Metric
« Previous Day
Next Day »
Daily Weekly Monthly Yearly Custom
  High: Low: Average:
Temperature: 93.4 °F /  34.1 °C 66.4 °F /  19.1 °C 81.5 °F /  27.5 °C
Dew Point: 68.4 °F /  20.2 °C 48.4 °F /  9.1 °C 60.6 °F /  15.9 °C
Humidity: 89 % 22 % 55 %
Wind Speed: 13 mph /  20.9 km/h - 3.2 mph /  5.2 km/h
Wind Gust: 17 mph /  27.4 km/h - -
Wind:- - WSW
Pressure: 30 in /  1016.8 hPa 30 in /  1015.1 hPa -
Precipitation: 0 in /  0.0 mm    
Historical Graphs
 
 
Tabular Data for June 22, 2017
Time Temperature Dew Point Pressure Wind Wind Speed Wind Gust Humidity Rainfall Rate (Hourly)
00:02 78.1 °F /  25.6 °C 68.4 °F /  20.2 °C 30 in /  1015.8 hPa Calm     72 % 0 in /  0.0 mm
00:07 77.9 °F /  25.5 °C 68.2 °F /  20.1 °C 30 in /  1015.8 hPa Calm     72 % 0 in /  0.0 mm
00:12 77.5 °F /  25.3 °C 68.2 °F /  20.1 °C 30 in /  1015.8 hPa Calm     73 % 0 in /  0.0 mm
00:17 77.2 °F /  25.1 °C 68.2 °F /  20.1 °C 30 in /  1015.8 hPa Calm     74 % 0 in /  0.0 mm
00:22 77.2 °F /  25.1 °C 68.2 °F /  20.1 °C 30 in /  1015.8 hPa Calm     74 % 0 in /  0.0 mm
00:27 76.8 °F /  24.9 °C 67.8 °F /  19.9 °C 30 in /  1015.8 hPa Calm     74 % 0 in /  0.0 mm
00:32 76.6 °F /  24.8 °C 68.2 °F /  20.1 °C 30 in /  1015.8 hPa Calm     75 % 0 in /  0.0 mm
00:37 76.5 °F /  24.7 °C 68.4 °F /  20.2 °C 30 in /  1015.8 hPa Calm     76 % 0 in /  0.0 mm
00:42 76.5 °F /  24.7 °C 68 °F /  20.0 °C 30 in /  1015.8 hPa Calm     75 % 0 in /  0.0 mm
00:52 76.1 °F /  24.5 °C 68 °F /  20.0 °C 30 in /  1015.8 hPa Calm     76 % 0 in /  0.0 mm
01:02 76.6 °F /  24.8 °C 68.2 °F /  20.1 °C 30 in /  1015.8 hPa Calm     75 % 0 in /  0.0 mm
01:12 75.9 °F /  24.4 °C 67.8 °F /  19.9 °C 30 in /  1015.8 hPa Calm     76 % 0 in /  0.0 mm
01:17 75.6 °F /  24.2 °C 67.8 °F /  19.9 °C 30 in /  1015.8 hPa Calm     77 % 0 in /  0.0 mm
01:22 75 °F /  23.9 °C 67.6 °F /  19.8 °C 30 in /  1015.8 hPa Calm     78 % 0 in /  0.0 mm
01:32 74.5 °F /  23.6 °C 67.5 °F /  19.7 °C 30 in /  1015.8 hPa Calm     79 % 0 in /  0.0 mm
01:42 74.1 °F /  23.4 °C 67.6 °F /  19.8 °C 30 in /  1015.8 hPa Calm     80 % 0 in /  0.0 mm
01:52 73.9 °F /  23.3 °C 67.5 °F /  19.7 °C 30 in /  1015.8 hPa Calm     80 % 0 in /  0.0 mm
02:02 73.6 °F /  23.1 °C 67.1 °F /  19.5 °C 30 in /  1015.8 hPa Calm     80 % 0 in /  0.0 mm
02:07 73 °F /  22.8 °C 66.9 °F /  19.4 °C 30 in /  1015.8 hPa Calm     81 % 0 in /  0.0 mm
02:12 73 °F /  22.8 °C 67.6 °F /  19.8 °C 30 in /  1015.8 hPa Calm     83 % 0 in /  0.0 mm
02:17 73 °F /  22.8 °C 67.6 °F /  19.8 °C 30 in /  1015.8 hPa Calm     83 % 0 in /  0.0 mm
02:22 72.9 °F /  22.7 °C 67.5 °F /  19.7 °C 30 in /  1015.8 hPa Calm     83 % 0 in /  0.0 mm
02:27 72.9 °F /  22.7 °C 67.5 °F /  19.7 °C 30 in /  1015.8 hPa Calm     83 % 0 in /  0.0 mm
02:32 72.9 °F /  22.7 °C 67.5 °F /  19.7 °C 30 in /  1015.8 hPa Calm     83 % 0 in /  0.0 mm
02:37 72.9 °F /  22.7 °C 67.5 °F /  19.7 °C 30 in /  1015.8 hPa Calm     83 % 0 in /  0.0 mm
02:42 72.9 °F /  22.7 °C 67.5 °F /  19.7 °C 30 in /  1015.8 hPa Calm     83 % 0 in /  0.0 mm
02:47 72.9 °F /  22.7 °C 67.5 °F /  19.7 °C 30 in /  1015.8 hPa Calm     83 % 0 in /  0.0 mm
02:52 72.9 °F /  22.7 °C 67.1 °F /  19.5 °C 30 in /  1015.8 hPa Calm     82 % 0 in /  0.0 mm
03:02 72.3 °F /  22.4 °C 66.9 °F /  19.4 °C 30 in /  1015.8 hPa Calm     83 % 0 in /  0.0 mm
03:12 71.8 °F /  22.1 °C 66.7 °F /  19.3 °C 30 in /  1015.8 hPa Calm     84 % 0 in /  0.0 mm
03:17 71.6 °F /  22.0 °C 66.9 °F /  19.4 °C 30 in /  1015.5 hPa Calm     85 % 0 in /  0.0 mm
03:22 71.4 °F /  21.9 °C 66.7 °F /  19.3 °C 30 in /  1015.5 hPa Calm     85 % 0 in /  0.0 mm
03:32 70.9 °F /  21.6 °C 66.6 °F /  19.2 °C 30 in /  1015.5 hPa Calm     86 % 0 in /  0.0 mm
03:42 70.5 °F /  21.4 °C 66.2 °F /  19.0 °C 30 in /  1015.5 hPa Calm     86 % 0 in /  0.0 mm
03:47 70.3 °F /  21.3 °C 66 °F /  18.9 °C 30 in /  1015.5 hPa Calm     86 % 0 in /  0.0 mm
03:52 70.2 °F /  21.2 °C 65.8 °F /  18.8 °C 30 in /  1015.5 hPa Calm     86 % 0 in /  0.0 mm
03:57 70 °F /  21.1 °C 66 °F /  18.9 °C 30 in /  1015.5 hPa Calm     87 % 0 in /  0.0 mm
04:02 70 °F /  21.1 °C 65.7 °F /  18.7 °C 30 in /  1015.5 hPa Calm     86 % 0 in /  0.0 mm
04:12 70.2 °F /  21.2 °C 65.5 °F /  18.6 °C 30 in /  1015.5 hPa Calm     85 % 0 in /  0.0 mm
04:17 70.3 °F /  21.3 °C 65.3 °F /  18.5 °C 30 in /  1015.5 hPa Calm     84 % 0 in /  0.0 mm
04:22 70.3 °F /  21.3 °C 65.3 °F /  18.5 °C 30 in /  1015.5 hPa Calm     84 % 0 in /  0.0 mm
04:32 70 °F /  21.1 °C 64.9 °F /  18.3 °C 30 in /  1015.5 hPa Calm     84 % 0 in /  0.0 mm
04:42 69.4 °F /  20.8 °C 64.8 °F /  18.2 °C 30 in /  1015.5 hPa Calm     85 % 0 in /  0.0 mm
04:47 69.3 °F /  20.7 °C 64.6 °F /  18.1 °C 30 in /  1015.5 hPa Calm     85 % 0 in /  0.0 mm
04:52 68.9 °F /  20.5 °C 64.2 °F /  17.9 °C 30 in /  1015.5 hPa Calm     85 % 0 in /  0.0 mm
05:02 68.5 °F /  20.3 °C 63.9 °F /  17.7 °C 30 in /  1015.5 hPa Calm     85 % 0 in /  0.0 mm
05:12 68 °F /  20.0 °C 64 °F /  17.8 °C 30 in /  1015.5 hPa Calm     87 % 0 in /  0.0 mm
05:17 67.6 °F /  19.8 °C 64 °F /  17.8 °C 30 in /  1015.1 hPa Calm     88 % 0 in /  0.0 mm
05:22 67.5 °F /  19.7 °C 63.9 °F /  17.7 °C 30 in /  1015.5 hPa Calm     88 % 0 in /  0.0 mm
05:32 67.1 °F /  19.5 °C 63.5 °F /  17.5 °C 30 in /  1015.5 hPa Calm     88 % 0 in /  0.0 mm
05:42 66.7 °F /  19.3 °C 63.1 °F /  17.3 °C 30 in /  1015.5 hPa Calm     88 % 0 in /  0.0 mm
05:52 66.4 °F /  19.1 °C 63 °F /  17.2 °C 30 in /  1015.5 hPa Calm     89 % 0 in /  0.0 mm
06:02 66.4 °F /  19.1 °C 63 °F /  17.2 °C 30 in /  1015.5 hPa Calm     89 % 0 in /  0.0 mm
06:12 66.6 °F /  19.2 °C 63.1 °F /  17.3 °C 30 in /  1015.8 hPa SSW 1 mph /  1.6 km/h   89 % 0 in /  0.0 mm
06:17 66.9 °F /  19.4 °C 63.5 °F /  17.5 °C 30 in /  1015.8 hPa Calm   2 mph /  3.2 km/h 89 % 0 in /  0.0 mm
06:22 66.6 °F /  19.2 °C 63 °F /  17.2 °C 30 in /  1015.8 hPa Calm   2 mph /  3.2 km/h 88 % 0 in /  0.0 mm
06:32 67.3 °F /  19.6 °C 63.9 °F /  17.7 °C 30 in /  1015.5 hPa Calm   2 mph /  3.2 km/h 89 % 0 in /  0.0 mm
06:42 67.6 °F /  19.8 °C 64 °F /  17.8 °C 30 in /  1015.8 hPa Calm   3 mph /  4.8 km/h 88 % 0 in /  0.0 mm
06:47 67.8 °F /  19.9 °C 63.9 °F /  17.7 °C 30 in /  1015.8 hPa SSE 1 mph /  1.6 km/h 1 mph /  1.6 km/h 87 % 0 in /  0.0 mm
06:52 68 °F /  20.0 °C 64 °F /  17.8 °C 30 in /  1015.8 hPa Calm   1 mph /  1.6 km/h 87 % 0 in /  0.0 mm
07:02 68.7 °F /  20.4 °C 64.4 °F /  18.0 °C 30 in /  1015.8 hPa Calm   1 mph /  1.6 km/h 86 % 0 in /  0.0 mm
07:12 69.4 °F /  20.8 °C 64.4 °F /  18.0 °C 30 in /  1015.8 hPa Calm   1 mph /  1.6 km/h 84 % 0 in /  0.0 mm
07:17 70 °F /  21.1 °C 64.9 °F /  18.3 °C 30 in /  1015.8 hPa Calm     84 % 0 in /  0.0 mm
07:22 70.5 °F /  21.4 °C 65.1 °F /  18.4 °C 30 in /  1015.8 hPa Calm     83 % 0 in /  0.0 mm
07:32 71.2 °F /  21.8 °C 65.8 °F /  18.8 °C 30 in /  1015.8 hPa SW 1 mph /  1.6 km/h   83 % 0 in /  0.0 mm
07:42 71.4 °F /  21.9 °C 65.3 °F /  18.5 °C 30 in /  1015.8 hPa SSW 1 mph /  1.6 km/h 1 mph /  1.6 km/h 81 % 0 in /  0.0 mm
07:47 71.4 °F /  21.9 °C 65.7 °F /  18.7 °C 30 in /  1016.1 hPa SSW 1 mph /  1.6 km/h 1 mph /  1.6 km/h 82 % 0 in /  0.0 mm
07:52 71.4 °F /  21.9 °C 65.3 °F /  18.5 °C 30 in /  1016.1 hPa Calm   1 mph /  1.6 km/h 81 % 0 in /  0.0 mm
08:02 72.1 °F /  22.3 °C 65.7 °F /  18.7 °C 30 in /  1016.1 hPa Calm   3 mph /  4.8 km/h 80 % 0 in /  0.0 mm
08:07 72.3 °F /  22.4 °C 65.8 °F /  18.8 °C 30 in /  1016.1 hPa SSW 1 mph /  1.6 km/h 3 mph /  4.8 km/h 80 % 0 in /  0.0 mm
08:12 72.9 °F /  22.7 °C 66.4 °F /  19.1 °C 30 in /  1016.1 hPa Calm   3 mph /  4.8 km/h 80 % 0 in /  0.0 mm
08:17 73 °F /  22.8 °C 65.8 °F /  18.8 °C 30 in /  1016.1 hPa SW 5 mph /  8.0 km/h 5 mph /  8.0 km/h 78 % 0 in /  0.0 mm
08:22 73.2 °F /  22.9 °C 66 °F /  18.9 °C 30 in /  1016.1 hPa SSW 4 mph /  6.4 km/h 4 mph /  6.4 km/h 78 % 0 in /  0.0 mm
08:32 73.9 °F /  23.3 °C 66.6 °F /  19.2 °C 30 in /  1016.1 hPa SSW 3 mph /  4.8 km/h 5 mph /  8.0 km/h 78 % 0 in /  0.0 mm
08:42 74.8 °F /  23.8 °C 66.7 °F /  19.3 °C 30 in /  1016.5 hPa SSW 1 mph /  1.6 km/h 5 mph /  8.0 km/h 76 % 0 in /  0.0 mm
08:47 75.4 °F /  24.1 °C 66.2 °F /  19.0 °C 30 in /  1016.5 hPa SW 8 mph /  12.9 km/h 8 mph /  12.9 km/h 73 % 0 in /  0.0 mm
08:52 75.7 °F /  24.3 °C 66 °F /  18.9 °C 30 in /  1016.5 hPa South 4 mph /  6.4 km/h 7 mph /  11.3 km/h 72 % 0 in /  0.0 mm
09:02 76.6 °F /  24.8 °C 65.3 °F /  18.5 °C 30 in /  1016.5 hPa South 4 mph /  6.4 km/h 10 mph /  16.1 km/h 68 % 0 in /  0.0 mm
09:07 77 °F /  25.0 °C 64.4 °F /  18.0 °C 30 in /  1016.5 hPa SW 2 mph /  3.2 km/h 9 mph /  14.5 km/h 65 % 0 in /  0.0 mm
09:12 77.7 °F /  25.4 °C 64.9 °F /  18.3 °C 30 in /  1016.5 hPa SW 2 mph /  3.2 km/h 9 mph /  14.5 km/h 65 % 0 in /  0.0 mm
09:17 78.1 °F /  25.6 °C 65.3 °F /  18.5 °C 30 in /  1016.5 hPa SW 3 mph /  4.8 km/h 6 mph /  9.7 km/h 65 % 0 in /  0.0 mm
09:22 78.3 °F /  25.7 °C 64.2 °F /  17.9 °C 30 in /  1016.5 hPa WSW 3 mph /  4.8 km/h 6 mph /  9.7 km/h 62 % 0 in /  0.0 mm
09:32 78.6 °F /  25.9 °C 64 °F /  17.8 °C 30 in /  1016.8 hPa SW 5 mph /  8.0 km/h 9 mph /  14.5 km/h 61 % 0 in /  0.0 mm
09:42 79.3 °F /  26.3 °C 64.2 °F /  17.9 °C 30 in /  1016.5 hPa SSW 4 mph /  6.4 km/h 10 mph /  16.1 km/h 60 % 0 in /  0.0 mm
09:52 79.9 °F /  26.6 °C 62.8 °F /  17.1 °C 30 in /  1016.8 hPa West 8 mph /  12.9 km/h 9 mph /  14.5 km/h 56 % 0 in /  0.0 mm
10:02 80.2 °F /  26.8 °C 63.7 °F /  17.6 °C 30 in /  1016.8 hPa SSW 1 mph /  1.6 km/h 11 mph /  17.7 km/h 57 % 0 in /  0.0 mm
10:12 81.1 °F /  27.3 °C 63.5 °F /  17.5 °C 30 in /  1016.8 hPa WSW 6 mph /  9.7 km/h 11 mph /  17.7 km/h 55 % 0 in /  0.0 mm
10:17 81.5 °F /  27.5 °C 63.9 °F /  17.7 °C 30 in /  1016.8 hPa South 4 mph /  6.4 km/h 9 mph /  14.5 km/h 55 % 0 in /  0.0 mm
10:22 81.7 °F /  27.6 °C 63 °F /  17.2 °C 30 in /  1016.8 hPa SW 5 mph /  8.0 km/h 9 mph /  14.5 km/h 53 % 0 in /  0.0 mm
10:27 81.9 °F /  27.7 °C 64 °F /  17.8 °C 30 in /  1016.8 hPa SW 7 mph /  11.3 km/h 9 mph /  14.5 km/h 55 % 0 in /  0.0 mm
10:32 81.9 °F /  27.7 °C 63 °F /  17.2 °C 30 in /  1016.8 hPa SW 5 mph /  8.0 km/h 9 mph /  14.5 km/h 53 % 0 in /  0.0 mm
10:42 82 °F /  27.8 °C 61.5 °F /  16.4 °C 30 in /  1016.8 hPa WSW 9 mph /  14.5 km/h 10 mph /  16.1 km/h 50 % 0 in /  0.0 mm
10:47 82.2 °F /  27.9 °C 61.2 °F /  16.2 °C 30 in /  1016.8 hPa SW 10 mph /  16.1 km/h 11 mph /  17.7 km/h 49 % 0 in /  0.0 mm
10:52 82.2 °F /  27.9 °C 61.2 °F /  16.2 °C 30 in /  1016.8 hPa West 4 mph /  6.4 km/h 11 mph /  17.7 km/h 49 % 0 in /  0.0 mm
11:02 82.8 °F /  28.2 °C 61.7 °F /  16.5 °C 30 in /  1016.8 hPa West 3 mph /  4.8 km/h 14 mph /  22.5 km/h 49 % 0 in /  0.0 mm
11:12 82.8 °F /  28.2 °C 61.7 °F /  16.5 °C 30 in /  1016.8 hPa SW 12 mph /  19.3 km/h 14 mph /  22.5 km/h 49 % 0 in /  0.0 mm
11:17 82.9 °F /  28.3 °C 60.1 °F /  15.6 °C 30 in /  1016.8 hPa WSW 6 mph /  9.7 km/h 14 mph /  22.5 km/h 46 % 0 in /  0.0 mm
11:22 83.3 °F /  28.5 °C 60.4 °F /  15.8 °C 30 in /  1016.8 hPa West 7 mph /  11.3 km/h 14 mph /  22.5 km/h 46 % 0 in /  0.0 mm
11:32 83.8 °F /  28.8 °C 62.1 °F /  16.7 °C 30 in /  1016.8 hPa SSW 3 mph /  4.8 km/h 14 mph /  22.5 km/h 48 % 0 in /  0.0 mm
11:42 84.4 °F /  29.1 °C 60.8 °F /  16.0 °C 30 in /  1016.8 hPa SW 6 mph /  9.7 km/h 14 mph /  22.5 km/h 45 % 0 in /  0.0 mm
11:47 84.9 °F /  29.4 °C 61.9 °F /  16.6 °C 30 in /  1016.8 hPa WSW 5 mph /  8.0 km/h 12 mph /  19.3 km/h 46 % 0 in /  0.0 mm
11:52 85.5 °F /  29.7 °C 60.4 °F /  15.8 °C 30 in /  1016.8 hPa SW 4 mph /  6.4 km/h 12 mph /  19.3 km/h 43 % 0 in /  0.0 mm
12:02 85.6 °F /  29.8 °C 59.9 °F /  15.5 °C 30 in /  1016.8 hPa SSW 4 mph /  6.4 km/h 12 mph /  19.3 km/h 42 % 0 in /  0.0 mm
12:12 86.4 °F /  30.2 °C 57.7 °F /  14.3 °C 30 in /  1016.8 hPa West 6 mph /  9.7 km/h 14 mph /  22.5 km/h 38 % 0 in /  0.0 mm
12:17 86.5 °F /  30.3 °C 58.6 °F /  14.8 °C 30 in /  1016.8 hPa SW 5 mph /  8.0 km/h 13 mph /  20.9 km/h 39 % 0 in /  0.0 mm
12:27 87.1 °F /  30.6 °C 56.8 °F /  13.8 °C 30 in /  1016.8 hPa SW 8 mph /  12.9 km/h 14 mph /  22.5 km/h 36 % 0 in /  0.0 mm
12:32 87.3 °F /  30.7 °C 55.4 °F /  13.0 °C 30 in /  1016.8 hPa WSW 9 mph /  14.5 km/h 14 mph /  22.5 km/h 34 % 0 in /  0.0 mm
12:42 87.6 °F /  30.9 °C 53.2 °F /  11.8 °C 30 in /  1016.5 hPa SW 4 mph /  6.4 km/h 15 mph /  24.1 km/h 31 % 0 in /  0.0 mm
12:47 88 °F /  31.1 °C 52.7 °F /  11.5 °C 30 in /  1016.5 hPa WSW 13 mph /  20.9 km/h 15 mph /  24.1 km/h 30 % 0 in /  0.0 mm
12:52 88.2 °F /  31.2 °C 53.8 °F /  12.1 °C 30 in /  1016.5 hPa SW 11 mph /  17.7 km/h 15 mph /  24.1 km/h 31 % 0 in /  0.0 mm
13:02 88 °F /  31.1 °C 54.5 °F /  12.5 °C 30 in /  1016.5 hPa SW 8 mph /  12.9 km/h 16 mph /  25.7 km/h 32 % 0 in /  0.0 mm
13:12 88.3 °F /  31.3 °C 56.5 °F /  13.6 °C 30 in /  1016.5 hPa West 9 mph /  14.5 km/h 17 mph /  27.4 km/h 34 % 0 in /  0.0 mm
13:17 88.5 °F /  31.4 °C 54.9 °F /  12.7 °C 30 in /  1016.5 hPa West 7 mph /  11.3 km/h 15 mph /  24.1 km/h 32 % 0 in /  0.0 mm
13:22 88.9 °F /  31.6 °C 54.3 °F /  12.4 °C 30 in /  1016.5 hPa WSW 4 mph /  6.4 km/h 15 mph /  24.1 km/h 31 % 0 in /  0.0 mm
13:32 88.9 °F /  31.6 °C 53.4 °F /  11.9 °C 30 in /  1016.5 hPa SW 6 mph /  9.7 km/h 14 mph /  22.5 km/h 30 % 0 in /  0.0 mm
13:37 89.2 °F /  31.8 °C 53.8 °F /  12.1 °C 30 in /  1016.5 hPa West 9 mph /  14.5 km/h 16 mph /  25.7 km/h 30 % 0 in /  0.0 mm
13:42 89.4 °F /  31.9 °C 54.9 °F /  12.7 °C 30 in /  1016.5 hPa SW 6 mph /  9.7 km/h 16 mph /  25.7 km/h 31 % 0 in /  0.0 mm
13:47 89.8 °F /  32.1 °C 53.2 °F /  11.8 °C 30 in /  1016.1 hPa West 6 mph /  9.7 km/h 17 mph /  27.4 km/h 29 % 0 in /  0.0 mm
13:52 90 °F /  32.2 °C 52.5 °F /  11.4 °C 30 in /  1016.1 hPa West 10 mph /  16.1 km/h 17 mph /  27.4 km/h 28 % 0 in /  0.0 mm
13:57 89.6 °F /  32.0 °C 52.2 °F /  11.2 °C 30 in /  1016.5 hPa SW 4 mph /  6.4 km/h 17 mph /  27.4 km/h 28 % 0 in /  0.0 mm
14:02 89.6 °F /  32.0 °C 51.3 °F /  10.7 °C 30 in /  1016.1 hPa West 12 mph /  19.3 km/h 17 mph /  27.4 km/h 27 % 0 in /  0.0 mm
14:07 89.8 °F /  32.1 °C 54.1 °F /  12.3 °C 30 in /  1016.1 hPa WSW 11 mph /  17.7 km/h 17 mph /  27.4 km/h 30 % 0 in /  0.0 mm
14:12 90 °F /  32.2 °C 51.4 °F /  10.8 °C 30 in /  1016.1 hPa SSW 8 mph /  12.9 km/h 17 mph /  27.4 km/h 27 % 0 in /  0.0 mm
14:17 90.3 °F /  32.4 °C 53.8 °F /  12.1 °C 30 in /  1016.1 hPa WSW 9 mph /  14.5 km/h 15 mph /  24.1 km/h 29 % 0 in /  0.0 mm
14:22 90.5 °F /  32.5 °C 52.9 °F /  11.6 °C 30 in /  1016.1 hPa WSW 8 mph /  12.9 km/h 15 mph /  24.1 km/h 28 % 0 in /  0.0 mm
14:32 90.9 °F /  32.7 °C 52.3 °F /  11.3 °C 30 in /  1016.1 hPa SW 12 mph /  19.3 km/h 16 mph /  25.7 km/h 27 % 0 in /  0.0 mm
14:37 91 °F /  32.8 °C 50.4 °F /  10.2 °C 30 in /  1016.1 hPa WNW 7 mph /  11.3 km/h 14 mph /  22.5 km/h 25 % 0 in /  0.0 mm
14:42 91.2 °F /  32.9 °C 52.5 °F /  11.4 °C 30 in /  1016.1 hPa WSW 7 mph /  11.3 km/h 14 mph /  22.5 km/h 27 % 0 in /  0.0 mm
14:47 91.6 °F /  33.1 °C 51.8 °F /  11.0 °C 30 in /  1016.1 hPa WSW 9 mph /  14.5 km/h 15 mph /  24.1 km/h 26 % 0 in /  0.0 mm
14:52 91.8 °F /  33.2 °C 52 °F /  11.1 °C 30 in /  1016.1 hPa WNW 7 mph /  11.3 km/h 15 mph /  24.1 km/h 26 % 0 in /  0.0 mm
15:02 92.1 °F /  33.4 °C 52.3 °F /  11.3 °C 30 in /  1016.1 hPa West 6 mph /  9.7 km/h 15 mph /  24.1 km/h 26 % 0 in /  0.0 mm
15:12 92.5 °F /  33.6 °C 51.6 °F /  10.9 °C 30 in /  1016.1 hPa WSW 4 mph /  6.4 km/h 15 mph /  24.1 km/h 25 % 0 in /  0.0 mm
15:17 92.7 °F /  33.7 °C 50.5 °F /  10.3 °C 30 in /  1016.1 hPa West 8 mph /  12.9 km/h 15 mph /  24.1 km/h 24 % 0 in /  0.0 mm
15:22 92.8 °F /  33.8 °C 50.7 °F /  10.4 °C 30 in /  1015.8 hPa West 7 mph /  11.3 km/h 15 mph /  24.1 km/h 24 % 0 in /  0.0 mm
15:27 92.8 °F /  33.8 °C 48.4 °F /  9.1 °C 30 in /  1016.1 hPa SW 8 mph /  12.9 km/h 17 mph /  27.4 km/h 22 % 0 in /  0.0 mm
15:32 92.8 °F /  33.8 °C 50.7 °F /  10.4 °C 30 in /  1016.1 hPa WSW 5 mph /  8.0 km/h 17 mph /  27.4 km/h 24 % 0 in /  0.0 mm
15:37 92.7 °F /  33.7 °C 50.5 °F /  10.3 °C 30 in /  1016.1 hPa WSW 6 mph /  9.7 km/h 17 mph /  27.4 km/h 24 % 0 in /  0.0 mm
15:42 92.7 °F /  33.7 °C 51.6 °F /  10.9 °C 30 in /  1015.8 hPa SW 6 mph /  9.7 km/h 17 mph /  27.4 km/h 25 % 0 in /  0.0 mm
15:47 92.8 °F /  33.8 °C 50.7 °F /  10.4 °C 30 in /  1015.8 hPa West 9 mph /  14.5 km/h 16 mph /  25.7 km/h 24 % 0 in /  0.0 mm
15:52 92.7 °F /  33.7 °C 51.6 °F /  10.9 °C 30 in /  1015.8 hPa WSW 6 mph /  9.7 km/h 16 mph /  25.7 km/h 25 % 0 in /  0.0 mm
15:57 92.7 °F /  33.7 °C 51.6 °F /  10.9 °C 30 in /  1015.8 hPa West 6 mph /  9.7 km/h 14 mph /  22.5 km/h 25 % 0 in /  0.0 mm
16:02 92.5 °F /  33.6 °C 51.6 °F /  10.9 °C 30 in /  1015.8 hPa WSW 8 mph /  12.9 km/h 14 mph /  22.5 km/h 25 % 0 in /  0.0 mm
16:12 92.8 °F /  33.8 °C 54 °F /  12.2 °C 30 in /  1015.8 hPa West 8 mph /  12.9 km/h 14 mph /  22.5 km/h 27 % 0 in /  0.0 mm
16:17 93.2 °F /  34.0 °C 54.3 °F /  12.4 °C 30 in /  1015.8 hPa WSW 13 mph /  20.9 km/h 13 mph /  20.9 km/h 27 % 0 in /  0.0 mm
16:22 92.7 °F /  33.7 °C 53.8 °F /  12.1 °C 30 in /  1015.8 hPa West 11 mph /  17.7 km/h 13 mph /  20.9 km/h 27 % 0 in /  0.0 mm
16:32 93.4 °F /  34.1 °C 54.3 °F /  12.4 °C 30 in /  1015.5 hPa West 10 mph /  16.1 km/h 13 mph /  20.9 km/h 27 % 0 in /  0.0 mm
16:42 93.2 °F /  34.0 °C 54.3 °F /  12.4 °C 30 in /  1015.5 hPa WSW 6 mph /  9.7 km/h 12 mph /  19.3 km/h 27 % 0 in /  0.0 mm
16:52 93.4 °F /  34.1 °C 54.3 °F /  12.4 °C 30 in /  1015.5 hPa SW 8 mph /  12.9 km/h 11 mph /  17.7 km/h 27 % 0 in /  0.0 mm
16:57 92.8 °F /  33.8 °C 54.9 °F /  12.7 °C 30 in /  1015.5 hPa West 5 mph /  8.0 km/h 14 mph /  22.5 km/h 28 % 0 in /  0.0 mm
17:02 93.2 °F /  34.0 °C 54.3 °F /  12.4 °C 30 in /  1015.5 hPa WSW 4 mph /  6.4 km/h 14 mph /  22.5 km/h 27 % 0 in /  0.0 mm
17:07 93.2 °F /  34.0 °C 54.3 °F /  12.4 °C 30 in /  1015.5 hPa West 10 mph /  16.1 km/h 14 mph /  22.5 km/h 27 % 0 in /  0.0 mm
17:12 92.8 °F /  33.8 °C 54.9 °F /  12.7 °C 30 in /  1015.5 hPa WNW 4 mph /  6.4 km/h 14 mph /  22.5 km/h 28 % 0 in /  0.0 mm
17:17 93 °F /  33.9 °C 56.1 °F /  13.4 °C 30 in /  1015.5 hPa WNW 6 mph /  9.7 km/h 13 mph /  20.9 km/h 29 % 0 in /  0.0 mm
17:27 93 °F /  33.9 °C 54.1 °F /  12.3 °C 30 in /  1015.5 hPa West 7 mph /  11.3 km/h 14 mph /  22.5 km/h 27 % 0 in /  0.0 mm
17:32 93 °F /  33.9 °C 55 °F /  12.8 °C 30 in /  1015.5 hPa WSW 9 mph /  14.5 km/h 14 mph /  22.5 km/h 28 % 0 in /  0.0 mm
17:42 92.8 °F /  33.8 °C 54.9 °F /  12.7 °C 30 in /  1015.5 hPa West 6 mph /  9.7 km/h 15 mph /  24.1 km/h 28 % 0 in /  0.0 mm
17:47 92.8 °F /  33.8 °C 54.9 °F /  12.7 °C 30 in /  1015.5 hPa WSW 8 mph /  12.9 km/h 12 mph /  19.3 km/h 28 % 0 in /  0.0 mm
17:52 92.8 °F /  33.8 °C 54.9 °F /  12.7 °C 30 in /  1015.5 hPa West 9 mph /  14.5 km/h 12 mph /  19.3 km/h 28 % 0 in /  0.0 mm
17:57 92.8 °F /  33.8 °C 54.9 °F /  12.7 °C 30 in /  1015.5 hPa West 10 mph /  16.1 km/h 14 mph /  22.5 km/h 28 % 0 in /  0.0 mm
18:02 92.7 °F /  33.7 °C 54.9 °F /  12.7 °C 30 in /  1015.5 hPa West 10 mph /  16.1 km/h 14 mph /  22.5 km/h 28 % 0 in /  0.0 mm
18:12 92.5 °F /  33.6 °C 53.6 °F /  12.0 °C 30 in /  1015.5 hPa West 9 mph /  14.5 km/h 14 mph /  22.5 km/h 27 % 0 in /  0.0 mm
18:17 92.5 °F /  33.6 °C 55.6 °F /  13.1 °C 30 in /  1015.5 hPa West 5 mph /  8.0 km/h 14 mph /  22.5 km/h 29 % 0 in /  0.0 mm
18:22 92.5 °F /  33.6 °C 54.7 °F /  12.6 °C 30 in /  1015.5 hPa WSW 7 mph /  11.3 km/h 11 mph /  17.7 km/h 28 % 0 in /  0.0 mm
18:32 92.7 °F /  33.7 °C 54.9 °F /  12.7 °C 30 in /  1015.5 hPa West 3 mph /  4.8 km/h 11 mph /  17.7 km/h 28 % 0 in /  0.0 mm
18:42 92.5 °F /  33.6 °C 55.6 °F /  13.1 °C 30 in /  1015.5 hPa West 6 mph /  9.7 km/h 10 mph /  16.1 km/h 29 % 0 in /  0.0 mm
18:47 92.1 °F /  33.4 °C 55.2 °F /  12.9 °C 30 in /  1015.5 hPa West 7 mph /  11.3 km/h 12 mph /  19.3 km/h 29 % 0 in /  0.0 mm
18:52 92.1 °F /  33.4 °C 55.2 °F /  12.9 °C 30 in /  1015.5 hPa SW 4 mph /  6.4 km/h 12 mph /  19.3 km/h 29 % 0 in /  0.0 mm
18:57 92.1 °F /  33.4 °C 56.3 °F /  13.5 °C 30 in /  1015.5 hPa SW 4 mph /  6.4 km/h 12 mph /  19.3 km/h 30 % 0 in /  0.0 mm
19:02 92.1 °F /  33.4 °C 57.2 °F /  14.0 °C 30 in /  1015.5 hPa WSW 7 mph /  11.3 km/h 12 mph /  19.3 km/h 31 % 0 in /  0.0 mm
19:07 92.1 °F /  33.4 °C 56.3 °F /  13.5 °C 30 in /  1015.5 hPa SW 2 mph /  3.2 km/h 9 mph /  14.5 km/h 30 % 0 in /  0.0 mm
19:12 92.1 °F /  33.4 °C 57.2 °F /  14.0 °C 30 in /  1015.5 hPa SW 4 mph /  6.4 km/h 9 mph /  14.5 km/h 31 % 0 in /  0.0 mm
19:17 92.1 °F /  33.4 °C 57.2 °F /  14.0 °C 30 in /  1015.5 hPa West 2 mph /  3.2 km/h 9 mph /  14.5 km/h 31 % 0 in /  0.0 mm
19:22 92.1 °F /  33.4 °C 57.2 °F /  14.0 °C 30 in /  1015.5 hPa WNW 4 mph /  6.4 km/h 9 mph /  14.5 km/h 31 % 0 in /  0.0 mm
19:32 91.9 °F /  33.3 °C 57 °F /  13.9 °C 30 in /  1015.5 hPa SW 3 mph /  4.8 km/h 7 mph /  11.3 km/h 31 % 0 in /  0.0 mm
19:37 91.8 °F /  33.2 °C 57.7 °F /  14.3 °C 30 in /  1015.5 hPa West 3 mph /  4.8 km/h 6 mph /  9.7 km/h 32 % 0 in /  0.0 mm
19:42 91.9 °F /  33.3 °C 57.9 °F /  14.4 °C 30 in /  1015.5 hPa Calm   6 mph /  9.7 km/h 32 % 0 in /  0.0 mm
19:52 91.8 °F /  33.2 °C 58.6 °F /  14.8 °C 30 in /  1015.5 hPa West 2 mph /  3.2 km/h 6 mph /  9.7 km/h 33 % 0 in /  0.0 mm
19:57 91.8 °F /  33.2 °C 58.6 °F /  14.8 °C 30 in /  1015.5 hPa WSW 2 mph /  3.2 km/h 5 mph /  8.0 km/h 33 % 0 in /  0.0 mm
20:02 91.6 °F /  33.1 °C 58.5 °F /  14.7 °C 30 in /  1015.5 hPa Calm   5 mph /  8.0 km/h 33 % 0 in /  0.0 mm
20:12 91.6 °F /  33.1 °C 59.2 °F /  15.1 °C 30 in /  1015.5 hPa WSW 3 mph /  4.8 km/h 4 mph /  6.4 km/h 34 % 0 in /  0.0 mm
20:17 91 °F /  32.8 °C 58.8 °F /  14.9 °C 30 in /  1015.5 hPa Calm   4 mph /  6.4 km/h 34 % 0 in /  0.0 mm
20:22 90.9 °F /  32.7 °C 58.6 °F /  14.8 °C 30 in /  1015.5 hPa WSW 2 mph /  3.2 km/h 4 mph /  6.4 km/h 34 % 0 in /  0.0 mm
20:32 90.1 °F /  32.3 °C 58.8 °F /  14.9 °C 30 in /  1015.5 hPa Calm   5 mph /  8.0 km/h 35 % 0 in /  0.0 mm
20:37 90 °F /  32.2 °C 59.4 °F /  15.2 °C 30 in /  1015.5 hPa Calm   3 mph /  4.8 km/h 36 % 0 in /  0.0 mm
20:42 89.6 °F /  32.0 °C 61.3 °F /  16.3 °C 30 in /  1015.5 hPa Calm   3 mph /  4.8 km/h 39 % 0 in /  0.0 mm
20:52 88.5 °F /  31.4 °C 61.9 °F /  16.6 °C 30 in /  1015.5 hPa Calm   1 mph /  1.6 km/h 41 % 0 in /  0.0 mm
20:57 87.8 °F /  31.0 °C 61.9 °F /  16.6 °C 30 in /  1015.5 hPa Calm     42 % 0 in /  0.0 mm
21:02 87.3 °F /  30.7 °C 62.1 °F /  16.7 °C 30 in /  1015.5 hPa Calm     43 % 0 in /  0.0 mm
21:12 86.2 °F /  30.1 °C 63.5 °F /  17.5 °C 30 in /  1015.5 hPa Calm     47 % 0 in /  0.0 mm
21:17 84.7 °F /  29.3 °C 62.2 °F /  16.8 °C 30 in /  1015.5 hPa Calm     47 % 0 in /  0.0 mm
21:22 83.8 °F /  28.8 °C 61.5 °F /  16.4 °C 30 in /  1015.5 hPa Calm     47 % 0 in /  0.0 mm
21:32 82.9 °F /  28.3 °C 63 °F /  17.2 °C 30 in /  1015.5 hPa West 1 mph /  1.6 km/h 1 mph /  1.6 km/h 51 % 0 in /  0.0 mm
21:42 81.9 °F /  27.7 °C 62.4 °F /  16.9 °C 30 in /  1015.8 hPa Calm   2 mph /  3.2 km/h 52 % 0 in /  0.0 mm
21:52 80.8 °F /  27.1 °C 62.1 °F /  16.7 °C 30 in /  1015.8 hPa Calm   2 mph /  3.2 km/h 53 % 0 in /  0.0 mm
21:57 80.4 °F /  26.9 °C 62.2 °F /  16.8 °C 30 in /  1015.8 hPa Calm   1 mph /  1.6 km/h 54 % 0 in /  0.0 mm
22:02 79.9 °F /  26.6 °C 62.2 °F /  16.8 °C 30 in /  1015.8 hPa Calm   1 mph /  1.6 km/h 55 % 0 in /  0.0 mm
22:12 79.3 °F /  26.3 °C 62.8 °F /  17.1 °C 30 in /  1015.8 hPa Calm     57 % 0 in /  0.0 mm
22:17 78.8 °F /  26.0 °C 62.8 °F /  17.1 °C 30 in /  1016.1 hPa Calm     58 % 0 in /  0.0 mm
22:22 78.4 °F /  25.8 °C 63 °F /  17.2 °C 30 in /  1016.1 hPa WNW 1 mph /  1.6 km/h   59 % 0 in /  0.0 mm
22:32 77.7 °F /  25.4 °C 62.8 °F /  17.1 °C 30 in /  1016.1 hPa Calm   1 mph /  1.6 km/h 60 % 0 in /  0.0 mm
22:37 77.4 °F /  25.2 °C 62.4 °F /  16.9 °C 30 in /  1016.1 hPa Calm   1 mph /  1.6 km/h 60 % 0 in /  0.0 mm
22:47 76.8 °F /  24.9 °C 61.3 °F /  16.3 °C 30 in /  1016.1 hPa Calm     59 % 0 in /  0.0 mm
22:52 76.8 °F /  24.9 °C 61.9 °F /  16.6 °C 30 in /  1016.1 hPa Calm     60 % 0 in /  0.0 mm
23:02 76.5 °F /  24.7 °C 61.5 °F /  16.4 °C 30 in /  1016.1 hPa Calm     60 % 0 in /  0.0 mm
23:12 75.9 °F /  24.4 °C 61.5 °F /  16.4 °C 30 in /  1016.5 hPa Calm     61 % 0 in /  0.0 mm
23:17 75.7 °F /  24.3 °C 61.3 °F /  16.3 °C 30 in /  1016.5 hPa Calm   1 mph /  1.6 km/h 61 % 0 in /  0.0 mm
23:22 75.6 °F /  24.2 °C 61.2 °F /  16.2 °C 30 in /  1016.1 hPa Calm   1 mph /  1.6 km/h 61 % 0 in /  0.0 mm
23:32 75.4 °F /  24.1 °C 61.5 °F /  16.4 °C 30 in /  1016.5 hPa Calm     62 % 0 in /  0.0 mm
23:42 74.8 °F /  23.8 °C 61 °F /  16.1 °C 30 in /  1016.5 hPa Calm     62 % 0 in /  0.0 mm
23:47 74.8 °F /  23.8 °C 60.4 °F /  15.8 °C 30 in /  1016.5 hPa Calm   1 mph /  1.6 km/h 61 % 0 in /  0.0 mm
23:52 74.7 °F /  23.7 °C 60.8 °F /  16.0 °C 30 in /  1016.5 hPa SSW 2 mph /  3.2 km/h 2 mph /  3.2 km/h 62 % 0 in /  0.0 mm
23:57 74.5 °F /  23.6 °C 61 °F /  16.1 °C 30 in /  1016.5 hPa South 1 mph /  1.6 km/h 2 mph /  3.2 km/h 63 % 0 in /  0.0 mm
Meteo18
Compliments of Weather Underground - 4 mb

Script developed by  Jim McMurry - jmcmurry@mwt.net Adapted for the template by  Wim van der Kuil - Leuven-Template.eu

You find our weather info also at:

European Weather Network

Weather Underground

Equipment we use:

Weather-station
Davis Vue

Weather-program
Meteohub

Weather-server
Raspberry PI 2 B+

Provider
1 and 1

Davis Vue

Meteohub

Raspberry PI 2 B+

1 and 1